YSJ weather

Saint John Airport
Saint John, New Brunswick, Canada

Public forecast

Using degrees Celsius for public forecast. Weather courtesy of forecast.io.

METAR (pilot weather report)

Retrieved 2019/09/21 12:00 UTC (45 minutes ago):

CYSJ 211200Z 36012KT 15SM FEW012 FEW054 17/14 A3007 RMK CF1SC1 SLP184 DENSITY ALT 500FT

TAF (pilot weather forecast)

Retrieved 2019/09/21 12:39 UTC (6 minutes ago):

TAF CYSJ 211138Z 2112/2124 35010KT P6SM FEW050 BECMG 2121/2123 VRB03KT RMK NXT FCST BY 211800Z